Time;durP1;ratioP1;P1;durP2;ratioP2;P2;SDS_P1;SDS_P2;PMS_P1;PMS_P2;Temp;Humidity;BMP_temperature;BMP_pressure;BME280_temperature;BME280_humidity;BME280_pressure;Samples;Min_cycle;Max_cycle;Signal;HPM_P1;HPM_P2
2023/10/15 00:00:18;;;;;;;0.50;0.50;;;;;;;;;;5015191;28;20199;-92
2023/10/15 00:02:44;;;;;;;0.57;0.57;;;;;;;;;;5013514;28;20188;-91
2023/10/15 00:05:17;;;;;;;0.67;0.67;;;;;;;;;;5014603;28;20181;-91
2023/10/15 00:07:44;;;;;;;0.63;0.63;;;;;;;;;;5014793;28;20195;-92
2023/10/15 00:10:14;;;;;;;0.70;0.70;;;;;;;;;;5014674;28;20235;-91
2023/10/15 00:12:41;;;;;;;0.60;0.60;;;;;;;;;;5014265;28;20207;-90
2023/10/15 00:15:11;;;;;;;0.60;0.60;;;;;;;;;;5014796;28;20192;-91
2023/10/15 00:17:37;;;;;;;0.60;0.60;;;;;;;;;;4997267;28;20181;-91
2023/10/15 00:20:05;;;;;;;0.70;0.70;;;;;;;;;;5014807;28;20206;-91
2023/10/15 00:22:31;;;;;;;0.60;0.60;;;;;;;;;;5014557;28;20220;-91
2023/10/15 00:24:57;;;;;;;0.60;0.60;;;;;;;;;;5014967;28;20677;-92
2023/10/15 00:27:23;;;;;;;0.60;0.60;;;;;;;;;;4997205;28;20547;-91
2023/10/15 00:29:50;;;;;;;0.53;0.53;;;;;;;;;;5014832;28;20204;-91
2023/10/15 00:32:15;;;;;;;0.60;0.60;;;;;;;;;;4997220;28;20749;-91
2023/10/15 00:34:42;;;;;;;0.60;0.60;;;;;;;;;;4997195;28;20319;-92
2023/10/15 00:37:08;;;;;;;0.50;0.50;;;;;;;;;;5014660;28;20630;-91
2023/10/15 00:39:41;;;;;;;0.70;0.70;;;;;;;;;;5014332;28;20192;-91
2023/10/15 00:42:07;;;;;;;0.70;0.70;;;;;;;;;;4996690;28;20252;-91
2023/10/15 00:44:33;;;;;;;0.70;0.70;;;;;;;;;;4996756;28;20183;-91
2023/10/15 00:47:03;;;;;;;0.70;0.70;;;;;;;;;;5016436;28;20180;-95
2023/10/15 00:49:30;;;;;;;0.60;0.60;;;;;;;;;;5021197;28;20216;-93
2023/10/15 00:51:56;;;;;;;0.60;0.60;;;;;;;;;;5014190;28;20184;-92
2023/10/15 00:54:23;;;;;;;0.60;0.60;;;;;;;;;;5014658;28;20179;-91
2023/10/15 00:56:54;;;;;;;0.63;0.63;;;;;;;;;;5014520;28;20168;-92
2023/10/15 00:59:21;;;;;;;0.70;0.70;;;;;;;;;;5014139;28;20289;-91
2023/10/15 01:04:31;;;;;;;0.70;0.70;;;;;;;;;;5014058;28;20230;-92
2023/10/15 01:07:00;;;;;;;0.60;0.60;;;;;;;;;;5014039;28;20188;-92
2023/10/15 01:09:30;;;;;;;0.60;0.60;;;;;;;;;;5015044;28;20213;-92
2023/10/15 01:11:57;;;;;;;0.60;0.60;;;;;;;;;;4999125;28;20196;-92
2023/10/15 01:14:44;;;;;;;0.70;0.70;;;;;;;;;;5016940;28;20176;-93
2023/10/15 01:17:10;;;;;;;0.60;0.60;;;;;;;;;;5014080;28;20181;-90
2023/10/15 01:19:36;;;;;;;0.70;0.70;;;;;;;;;;5013869;28;20299;-92
2023/10/15 01:22:17;;;;;;;0.70;0.70;;;;;;;;;;5013203;28;20223;-91
2023/10/15 01:24:43;;;;;;;0.60;0.60;;;;;;;;;;5014023;28;20302;-92
2023/10/15 01:27:30;;;;;;;0.70;0.70;;;;;;;;;;5013524;28;20229;-92
2023/10/15 01:29:58;;;;;;;0.60;0.60;;;;;;;;;;5013439;28;20212;-91
2023/10/15 01:32:30;;;;;;;0.70;0.70;;;;;;;;;;4995868;28;20204;-93
2023/10/15 01:34:59;;;;;;;0.70;0.70;;;;;;;;;;5013564;28;20165;-92
2023/10/15 01:37:26;;;;;;;0.73;0.73;;;;;;;;;;5013678;28;20176;-93
2023/10/15 01:42:40;;;;;;;0.60;0.60;;;;;;;;;;5013663;28;20200;-91
2023/10/15 01:47:53;;;;;;;0.60;0.60;;;;;;;;;;5016011;28;20180;-91
2023/10/15 01:50:23;;;;;;;0.60;0.60;;;;;;;;;;5014274;28;20216;-95
2023/10/15 01:52:54;;;;;;;0.67;0.67;;;;;;;;;;5013426;28;20701;-93
2023/10/15 01:55:21;;;;;;;0.60;0.60;;;;;;;;;;5013228;28;20219;-91
2023/10/15 01:57:47;;;;;;;0.60;0.60;;;;;;;;;;5013231;28;20184;-91
2023/10/15 02:00:14;;;;;;;0.50;0.50;;;;;;;;;;5013007;28;20189;-92
2023/10/15 02:02:41;;;;;;;0.60;0.60;;;;;;;;;;5012839;28;20193;-92
2023/10/15 02:05:25;;;;;;;0.70;0.70;;;;;;;;;;5013389;28;20196;-90
2023/10/15 02:07:56;;;;;;;0.60;0.60;;;;;;;;;;5012824;28;20177;-92
2023/10/15 02:10:21;;;;;;;0.60;0.60;;;;;;;;;;5011641;28;20223;-92
2023/10/15 02:12:59;;;;;;;0.67;0.67;;;;;;;;;;5013288;28;20197;-92
2023/10/15 02:15:25;;;;;;;0.60;0.60;;;;;;;;;;4996634;28;20218;-92
2023/10/15 02:23:23;;;;;;;0.70;0.70;;;;;;;;;;5057881;28;20219;-96
2023/10/15 02:26:02;;;;;;;0.70;0.70;;;;;;;;;;5043736;28;20263;-92
2023/10/15 02:28:31;;;;;;;0.70;0.70;;;;;;;;;;5032824;28;20662;-94
2023/10/15 02:33:36;;;;;;;0.60;0.60;;;;;;;;;;5044657;28;20214;-93
2023/10/15 02:36:09;;;;;;;0.70;0.70;;;;;;;;;;5035203;28;20172;-92
2023/10/15 02:38:44;;;;;;;0.60;0.60;;;;;;;;;;5032952;28;20233;-92
2023/10/15 02:41:10;;;;;;;0.63;0.63;;;;;;;;;;5032410;28;20218;-93
2023/10/15 02:48:32;;;;;;;0.60;0.60;;;;;;;;;;5395718;22;20305;-91
2023/10/15 02:53:35;;;;;;;0.60;0.60;;;;;;;;;;5033272;22;20239;-92
2023/10/15 02:56:13;;;;;;;0.50;0.50;;;;;;;;;;5032566;28;20671;-92
2023/10/15 02:58:42;;;;;;;0.60;0.60;;;;;;;;;;5030355;28;20192;-92
2023/10/15 03:01:17;;;;;;;0.80;0.80;;;;;;;;;;5032709;28;20318;-91
2023/10/15 03:09:11;;;;;;;0.60;0.60;;;;;;;;;;5069644;22;20259;-95
2023/10/15 03:11:53;;;;;;;0.60;0.60;;;;;;;;;;5235360;22;20227;-96
2023/10/15 03:14:21;;;;;;;0.50;0.50;;;;;;;;;;5058059;28;20172;-92
2023/10/15 03:16:47;;;;;;;0.70;0.70;;;;;;;;;;5053515;28;20176;-90
2023/10/15 03:19:23;;;;;;;0.60;0.60;;;;;;;;;;5055239;28;20210;-91
2023/10/15 03:21:56;;;;;;;0.60;0.60;;;;;;;;;;5038012;28;20220;-92
2023/10/15 03:24:22;;;;;;;0.60;0.60;;;;;;;;;;5020069;28;20226;-92
2023/10/15 03:26:48;;;;;;;0.70;0.70;;;;;;;;;;5045521;28;20160;-91
2023/10/15 03:29:14;;;;;;;0.60;0.60;;;;;;;;;;5039501;28;20226;-92
2023/10/15 03:31:48;;;;;;;0.70;0.70;;;;;;;;;;5036643;28;20692;-93
2023/10/15 03:34:22;;;;;;;0.60;0.60;;;;;;;;;;5035528;28;20241;-92
2023/10/15 03:36:51;;;;;;;0.60;0.60;;;;;;;;;;5014750;28;20255;-93
2023/10/15 03:42:09;;;;;;;0.50;0.50;;;;;;;;;;5036599;28;20574;-92
2023/10/15 03:44:36;;;;;;;0.60;0.60;;;;;;;;;;5036488;28;20171;-92
2023/10/15 03:47:05;;;;;;;0.60;0.60;;;;;;;;;;5036665;28;20172;-91
2023/10/15 04:00:16;;;;;;;0.60;0.60;;;;;;;;;;5035479;28;20259;-92
2023/10/15 04:05:31;;;;;;;0.60;0.60;;;;;;;;;;5035809;23;20242;-92
2023/10/15 04:07:57;;;;;;;0.70;0.70;;;;;;;;;;5017581;28;20637;-93
2023/10/15 04:15:31;;;;;;;0.80;0.80;;;;;;;;;;5056196;22;20304;-92
2023/10/15 04:23:13;;;;;;;0.60;0.60;;;;;;;;;;5049374;28;20222;-92
2023/10/15 04:25:39;;;;;;;0.60;0.60;;;;;;;;;;5048028;28;20180;-92
2023/10/15 04:28:14;;;;;;;0.60;0.60;;;;;;;;;;5037824;28;20176;-93
2023/10/15 04:30:40;;;;;;;0.53;0.53;;;;;;;;;;5034857;28;20594;-92
2023/10/15 04:35:42;;;;;;;0.70;0.70;;;;;;;;;;5035331;22;20330;-92
2023/10/15 04:38:10;;;;;;;0.70;0.70;;;;;;;;;;5016622;28;20226;-92
2023/10/15 04:43:27;;;;;;;0.60;0.60;;;;;;;;;;5014482;28;20487;-93
2023/10/15 04:45:58;;;;;;;0.60;0.60;;;;;;;;;;5014749;28;20180;-92
2023/10/15 04:48:29;;;;;;;0.63;0.63;;;;;;;;;;5014359;28;20642;-92
2023/10/15 04:51:02;;;;;;;0.60;0.60;;;;;;;;;;5017389;28;20646;-91
2023/10/15 04:53:30;;;;;;;0.63;0.63;;;;;;;;;;5021993;28;20291;-92
2023/10/15 04:55:56;;;;;;;0.50;0.50;;;;;;;;;;5022047;28;20193;-93
2023/10/15 04:58:27;;;;;;;0.57;0.57;;;;;;;;;;5019618;28;20208;-92
2023/10/15 05:00:54;;;;;;;0.80;0.80;;;;;;;;;;5014219;28;20669;-92
2023/10/15 05:03:21;;;;;;;0.63;0.63;;;;;;;;;;5014535;28;20260;-92
2023/10/15 05:05:47;;;;;;;0.60;0.60;;;;;;;;;;5014315;28;20215;-92
2023/10/15 05:18:22;;;;;;;0.50;0.50;;;;;;;;;;5034869;22;20366;-92
2023/10/15 05:21:08;;;;;;;0.70;0.70;;;;;;;;;;5015884;28;20652;-93
2023/10/15 05:23:34;;;;;;;0.60;0.60;;;;;;;;;;5014074;28;20175;-94
2023/10/15 05:26:02;;;;;;;0.70;0.70;;;;;;;;;;5013749;28;20184;-93
2023/10/15 05:28:29;;;;;;;0.73;0.73;;;;;;;;;;5013878;28;20179;-93
2023/10/15 05:30:58;;;;;;;0.60;0.60;;;;;;;;;;5012595;28;20224;-92
2023/10/15 05:33:28;;;;;;;0.60;0.60;;;;;;;;;;5014120;28;20161;-92
2023/10/15 05:35:57;;;;;;;0.67;0.67;;;;;;;;;;5014122;28;20176;-92
2023/10/15 05:38:27;;;;;;;0.70;0.70;;;;;;;;;;4996395;28;20203;-91
2023/10/15 05:40:59;;;;;;;0.60;0.60;;;;;;;;;;5014011;28;20238;-92
2023/10/15 05:43:26;;;;;;;0.60;0.60;;;;;;;;;;5013514;28;20184;-93
2023/10/15 05:45:53;;;;;;;0.70;0.70;;;;;;;;;;5001010;28;20173;-87
2023/10/15 05:48:19;;;;;;;0.70;0.70;;;;;;;;;;5019461;28;20202;-92
2023/10/15 05:50:51;;;;;;;0.60;0.60;;;;;;;;;;5014166;28;20212;-93
2023/10/15 05:53:17;;;;;;;0.67;0.67;;;;;;;;;;5014635;28;20669;-92
2023/10/15 05:55:44;;;;;;;0.70;0.70;;;;;;;;;;5015422;28;20181;-92
2023/10/15 05:58:10;;;;;;;0.60;0.60;;;;;;;;;;4997508;28;20693;-90
2023/10/15 06:00:42;;;;;;;0.60;0.60;;;;;;;;;;4996197;28;20172;-92
2023/10/15 06:03:11;;;;;;;0.53;0.53;;;;;;;;;;5019883;28;20192;-93
2023/10/15 06:05:37;;;;;;;0.70;0.70;;;;;;;;;;5013202;28;20177;-92
2023/10/15 06:08:04;;;;;;;0.70;0.70;;;;;;;;;;5013432;28;20183;-92
2023/10/15 06:10:32;;;;;;;0.60;0.60;;;;;;;;;;4995577;28;20208;-91
2023/10/15 06:12:58;;;;;;;0.60;0.60;;;;;;;;;;5012404;28;20287;-92
2023/10/15 06:15:25;;;;;;;0.70;0.70;;;;;;;;;;5013045;28;20618;-93
2023/10/15 06:17:51;;;;;;;0.60;0.60;;;;;;;;;;4995045;28;20217;-92
2023/10/15 06:20:17;;;;;;;0.53;0.53;;;;;;;;;;5013084;28;20192;-92
2023/10/15 06:22:45;;;;;;;0.70;0.70;;;;;;;;;;4994865;28;20231;-92
2023/10/15 06:25:12;;;;;;;0.70;0.70;;;;;;;;;;5018347;23;20637;-92
2023/10/15 06:27:47;;;;;;;0.80;0.80;;;;;;;;;;5052654;28;20175;-92
2023/10/15 06:30:37;;;;;;;0.50;0.50;;;;;;;;;;5050562;28;20211;-92
2023/10/15 06:33:06;;;;;;;0.67;0.67;;;;;;;;;;5130697;22;20621;-92
2023/10/15 06:38:08;;;;;;;0.60;0.60;;;;;;;;;;5071643;22;20236;-92
2023/10/15 06:43:25;;;;;;;0.60;0.60;;;;;;;;;;5040217;22;20298;-93
2023/10/15 06:45:51;;;;;;;0.63;0.63;;;;;;;;;;5033826;28;20458;-93
2023/10/15 06:48:18;;;;;;;0.63;0.63;;;;;;;;;;5033237;28;20179;-93
2023/10/15 06:55:45;;;;;;;0.60;0.60;;;;;;;;;;5033721;22;20705;-92
2023/10/15 06:58:15;;;;;;;0.60;0.60;;;;;;;;;;5032722;28;20653;-92
2023/10/15 07:00:41;;;;;;;0.60;0.60;;;;;;;;;;5013555;28;20172;-93
2023/10/15 07:03:07;;;;;;;0.60;0.60;;;;;;;;;;5021914;28;20227;-94
2023/10/15 07:05:41;;;;;;;0.60;0.60;;;;;;;;;;5019477;28;20185;-93
2023/10/15 07:08:07;;;;;;;0.63;0.63;;;;;;;;;;5022937;28;20180;-91
2023/10/15 07:10:36;;;;;;;0.50;0.50;;;;;;;;;;5021904;28;20223;-93
2023/10/15 07:13:10;;;;;;;0.70;0.70;;;;;;;;;;5018888;28;20669;-92
2023/10/15 07:15:37;;;;;;;0.70;0.70;;;;;;;;;;5015693;28;20176;-92
2023/10/15 07:18:04;;;;;;;0.60;0.60;;;;;;;;;;5026837;28;20180;-94
2023/10/15 07:20:30;;;;;;;0.50;0.50;;;;;;;;;;5018361;28;20177;-92
2023/10/15 07:23:00;;;;;;;0.57;0.57;;;;;;;;;;5150367;23;20234;-91
2023/10/15 07:25:34;;;;;;;0.60;0.60;;;;;;;;;;5054734;28;20233;-92
2023/10/15 07:28:06;;;;;;;0.60;0.60;;;;;;;;;;5062154;28;20249;-92
2023/10/15 07:30:44;;;;;;;0.60;0.60;;;;;;;;;;5239075;22;20227;-92
2023/10/15 07:33:12;;;;;;;0.40;0.40;;;;;;;;;;5043548;28;20249;-93
2023/10/15 07:38:12;;;;;;;0.50;0.50;;;;;;;;;;5135135;22;20285;-92
2023/10/15 07:40:40;;;;;;;0.50;0.50;;;;;;;;;;5035573;28;20239;-92
2023/10/15 07:43:11;;;;;;;0.50;0.50;;;;;;;;;;5034876;28;20207;-91
2023/10/15 07:45:50;;;;;;;0.50;0.50;;;;;;;;;;5036093;28;20314;-93
2023/10/15 07:50:52;;;;;;;0.60;0.60;;;;;;;;;;5105606;22;20899;-92
2023/10/15 07:53:18;;;;;;;0.70;0.70;;;;;;;;;;5038016;28;20153;-96
2023/10/15 07:55:46;;;;;;;0.60;0.60;;;;;;;;;;5028267;28;20185;-95
2023/10/15 07:58:12;;;;;;;0.50;0.50;;;;;;;;;;5242501;22;20245;-86
2023/10/15 08:00:44;;;;;;;0.47;0.47;;;;;;;;;;5113138;22;20287;-94
2023/10/15 08:03:10;;;;;;;0.40;0.40;;;;;;;;;;5271113;22;20214;-96
2023/10/15 08:05:36;;;;;;;0.50;0.50;;;;;;;;;;5101036;23;20231;-93
2023/10/15 08:08:24;;;;;;;0.50;0.50;;;;;;;;;;5055806;28;20195;-92
2023/10/15 08:10:52;;;;;;;0.50;0.50;;;;;;;;;;5044458;28;20207;-91
2023/10/15 08:13:18;;;;;;;0.40;0.40;;;;;;;;;;5033009;28;20180;-92
2023/10/15 08:15:44;;;;;;;0.40;0.40;;;;;;;;;;5034404;28;20172;-91
2023/10/15 08:18:12;;;;;;;0.30;0.30;;;;;;;;;;5034301;28;20180;-91
2023/10/15 08:20:38;;;;;;;0.40;0.40;;;;;;;;;;5034243;28;20180;-90
2023/10/15 08:23:04;;;;;;;0.30;0.30;;;;;;;;;;5034294;28;20574;-88
2023/10/15 08:25:33;;;;;;;0.30;0.30;;;;;;;;;;5033526;28;20681;-92
2023/10/15 08:27:59;;;;;;;0.20;0.20;;;;;;;;;;5034612;28;20179;-89
2023/10/15 08:30:25;;;;;;;0.20;0.20;;;;;;;;;;5033910;28;20294;-89
2023/10/15 08:32:51;;;;;;;0.30;0.30;;;;;;;;;;5033693;28;20198;-92
2023/10/15 08:35:17;;;;;;;0.30;0.30;;;;;;;;;;5033864;28;20250;-90
2023/10/15 08:37:46;;;;;;;0.40;0.40;;;;;;;;;;5042822;28;20180;-90
2023/10/15 08:40:16;;;;;;;0.40;0.40;;;;;;;;;;5044309;28;20212;-91
2023/10/15 08:42:44;;;;;;;0.30;0.30;;;;;;;;;;5033924;28;20278;-90
2023/10/15 08:45:10;;;;;;;0.30;0.30;;;;;;;;;;5034096;28;20180;-90
2023/10/15 08:47:36;;;;;;;0.33;0.33;;;;;;;;;;5033502;28;20203;-90
2023/10/15 08:50:03;;;;;;;0.30;0.30;;;;;;;;;;5033923;28;20203;-90
2023/10/15 08:52:31;;;;;;;0.40;0.40;;;;;;;;;;5034150;28;20355;-90
2023/10/15 08:55:01;;;;;;;0.40;0.40;;;;;;;;;;5035348;28;20230;-85
2023/10/15 08:57:28;;;;;;;0.30;0.30;;;;;;;;;;5037973;28;20255;-90
2023/10/15 08:59:57;;;;;;;0.30;0.30;;;;;;;;;;5036689;28;20199;-89
2023/10/15 09:02:24;;;;;;;0.40;0.40;;;;;;;;;;5034540;28;20222;-89
2023/10/15 09:04:52;;;;;;;0.30;0.30;;;;;;;;;;5035928;28;20211;-90
2023/10/15 09:07:19;;;;;;;0.40;0.40;;;;;;;;;;5046628;28;20223;-93
2023/10/15 09:09:45;;;;;;;0.30;0.30;;;;;;;;;;5054291;28;20227;-90
2023/10/15 09:12:14;;;;;;;0.30;0.30;;;;;;;;;;5032365;28;20626;-90
2023/10/15 09:14:40;;;;;;;0.30;0.30;;;;;;;;;;5034146;28;20180;-92
2023/10/15 09:17:09;;;;;;;0.40;0.40;;;;;;;;;;5033857;28;20176;-90
2023/10/15 09:19:35;;;;;;;0.30;0.30;;;;;;;;;;5033684;28;20263;-89
2023/10/15 09:22:01;;;;;;;0.40;0.40;;;;;;;;;;5033540;28;20285;-90
2023/10/15 09:24:27;;;;;;;0.40;0.40;;;;;;;;;;5033651;28;20176;-92
2023/10/15 09:26:53;;;;;;;0.37;0.37;;;;;;;;;;5034187;28;20172;-91
2023/10/15 09:29:19;;;;;;;0.30;0.30;;;;;;;;;;5012868;28;20247;-88
2023/10/15 09:31:46;;;;;;;0.40;0.40;;;;;;;;;;5030531;28;20192;-90
2023/10/15 09:34:12;;;;;;;0.30;0.30;;;;;;;;;;5037455;28;20165;-88
2023/10/15 09:36:38;;;;;;;0.30;0.30;;;;;;;;;;5037357;28;20173;-89
2023/10/15 09:39:12;;;;;;;0.40;0.40;;;;;;;;;;5019914;28;20173;-88
2023/10/15 09:41:38;;;;;;;0.50;0.50;;;;;;;;;;5012379;28;20192;-89
2023/10/15 09:44:06;;;;;;;0.40;0.40;;;;;;;;;;5013555;28;20175;-87
2023/10/15 09:46:33;;;;;;;0.40;0.40;;;;;;;;;;5024298;28;20183;-89
2023/10/15 09:49:03;;;;;;;0.50;0.50;;;;;;;;;;5033261;28;20211;-89
2023/10/15 09:51:32;;;;;;;0.30;0.30;;;;;;;;;;5032868;28;20303;-89
2023/10/15 09:53:59;;;;;;;0.57;0.57;;;;;;;;;;5035602;28;20228;-89
2023/10/15 09:56:26;;;;;;;0.40;0.40;;;;;;;;;;5044142;28;20175;-89
2023/10/15 09:58:53;;;;;;;0.40;0.40;;;;;;;;;;5041135;28;20172;-89
2023/10/15 10:01:25;;;;;;;0.60;0.60;;;;;;;;;;5039467;28;20669;-89
2023/10/15 10:04:15;;;;;;;0.40;0.40;;;;;;;;;;5032920;28;20234;-90
2023/10/15 10:06:53;;;;;;;0.40;0.40;;;;;;;;;;5031681;28;20187;-89
2023/10/15 10:09:38;;;;;;;0.60;0.60;;;;;;;;;;5031074;28;20216;-89
2023/10/15 10:12:39;;;;;;;0.50;0.50;;;;;;;;;;5031031;28;20560;-90
2023/10/15 10:15:28;;;;;;;0.40;0.40;;;;;;;;;;4971512;28;20181;-89
2023/10/15 10:17:55;;;;;;;0.40;0.40;;;;;;;;;;5020856;28;20650;-89
2023/10/15 10:20:21;;;;;;;0.40;0.40;;;;;;;;;;5013662;28;20203;-89
2023/10/15 10:22:57;;;;;;;0.30;0.30;;;;;;;;;;5011212;28;20198;-89
2023/10/15 10:25:35;;;;;;;0.30;0.30;;;;;;;;;;5018175;28;20198;-90
2023/10/15 10:28:11;;;;;;;0.30;0.30;;;;;;;;;;5023654;28;20422;-90
2023/10/15 10:30:37;;;;;;;0.30;0.30;;;;;;;;;;5022740;28;20207;-92
2023/10/15 10:33:04;;;;;;;0.33;0.33;;;;;;;;;;5030644;28;20215;-90
2023/10/15 10:35:41;;;;;;;0.30;0.30;;;;;;;;;;5032267;28;20225;-90
2023/10/15 10:38:10;;;;;;;0.30;0.30;;;;;;;;;;5031162;28;20182;-91
2023/10/15 10:40:49;;;;;;;0.40;0.40;;;;;;;;;;5031789;28;20246;-92
2023/10/15 10:43:16;;;;;;;0.50;0.50;;;;;;;;;;5030766;28;20189;-88
2023/10/15 10:45:53;;;;;;;0.47;0.47;;;;;;;;;;5032165;28;20256;-89
2023/10/15 10:48:29;;;;;;;0.30;0.30;;;;;;;;;;5034635;28;20191;-88
2023/10/15 10:51:21;;;;;;;0.40;0.40;;;;;;;;;;5035567;28;21054;-85
2023/10/15 10:53:56;;;;;;;0.50;0.50;;;;;;;;;;5034938;28;20230;-89
2023/10/15 10:56:41;;;;;;;0.50;0.50;;;;;;;;;;5036263;28;20198;-88
2023/10/15 10:59:07;;;;;;;0.40;0.40;;;;;;;;;;5035905;28;20176;-92
2023/10/15 11:01:33;;;;;;;0.40;0.40;;;;;;;;;;5034398;28;20759;-89
2023/10/15 11:03:59;;;;;;;0.40;0.40;;;;;;;;;;5036026;28;20184;-91
2023/10/15 11:06:26;;;;;;;0.50;0.50;;;;;;;;;;5036076;28;20194;-89
2023/10/15 11:08:52;;;;;;;0.40;0.40;;;;;;;;;;5035046;28;20229;-88
2023/10/15 11:11:19;;;;;;;0.40;0.40;;;;;;;;;;5035148;28;20689;-90
2023/10/15 11:13:46;;;;;;;0.37;0.37;;;;;;;;;;5035416;28;20191;-87
2023/10/15 11:16:12;;;;;;;0.30;0.30;;;;;;;;;;5034269;28;20775;-89
2023/10/15 11:18:40;;;;;;;0.40;0.40;;;;;;;;;;5034344;28;20176;-89
2023/10/15 11:21:07;;;;;;;0.30;0.30;;;;;;;;;;5035775;28;20180;-89
2023/10/15 11:23:33;;;;;;;0.30;0.30;;;;;;;;;;5036218;28;20191;-89
2023/10/15 11:25:59;;;;;;;0.30;0.30;;;;;;;;;;5034546;28;20278;-91
2023/10/15 11:28:25;;;;;;;0.40;0.40;;;;;;;;;;5034717;28;20228;-89
2023/10/15 11:30:53;;;;;;;0.33;0.33;;;;;;;;;;5033938;28;20302;-90
2023/10/15 11:33:19;;;;;;;0.33;0.33;;;;;;;;;;5035638;28;20259;-89
2023/10/15 11:35:51;;;;;;;0.43;0.43;;;;;;;;;;5040954;28;20270;-88
2023/10/15 11:38:20;;;;;;;0.40;0.40;;;;;;;;;;5044694;28;20188;-87
2023/10/15 11:40:45;;;;;;;0.40;0.40;;;;;;;;;;5035776;28;20226;-89
2023/10/15 11:43:21;;;;;;;0.33;0.33;;;;;;;;;;5034909;28;20200;-89
2023/10/15 11:45:47;;;;;;;0.40;0.40;;;;;;;;;;5035011;28;20725;-90
2023/10/15 11:48:14;;;;;;;0.40;0.40;;;;;;;;;;5034850;28;20207;-90
2023/10/15 11:50:40;;;;;;;0.53;0.53;;;;;;;;;;5034152;28;20261;-89
2023/10/15 11:53:16;;;;;;;0.40;0.40;;;;;;;;;;5033839;28;20203;-88
2023/10/15 11:55:42;;;;;;;0.40;0.40;;;;;;;;;;5033578;28;20172;-89
2023/10/15 11:58:10;;;;;;;0.53;0.53;;;;;;;;;;5034386;28;20172;-88
2023/10/15 12:00:39;;;;;;;0.40;0.40;;;;;;;;;;5034150;28;20229;-90
2023/10/15 12:03:06;;;;;;;0.40;0.40;;;;;;;;;;5034818;28;20188;-86
2023/10/15 12:05:32;;;;;;;0.43;0.43;;;;;;;;;;5034464;28;20187;-89
2023/10/15 12:07:59;;;;;;;0.47;0.47;;;;;;;;;;5034555;28;20171;-89
2023/10/15 12:10:26;;;;;;;0.30;0.30;;;;;;;;;;5034663;28;20216;-90
2023/10/15 12:12:52;;;;;;;0.60;0.60;;;;;;;;;;5032823;28;20270;-90
2023/10/15 12:15:18;;;;;;;0.60;0.60;;;;;;;;;;5034562;28;20175;-90
2023/10/15 12:17:44;;;;;;;0.50;0.50;;;;;;;;;;5035130;28;20215;-89
2023/10/15 12:20:13;;;;;;;0.40;0.40;;;;;;;;;;5034406;28;20267;-90
2023/10/15 12:22:42;;;;;;;0.50;0.50;;;;;;;;;;5031302;28;20192;-91
2023/10/15 12:25:08;;;;;;;0.40;0.40;;;;;;;;;;5014517;28;20718;-88
2023/10/15 12:27:34;;;;;;;0.50;0.50;;;;;;;;;;5013372;28;20621;-88
2023/10/15 12:30:07;;;;;;;0.43;0.43;;;;;;;;;;5014975;28;20204;-92
2023/10/15 12:32:33;;;;;;;0.50;0.50;;;;;;;;;;5012196;28;20266;-89
2023/10/15 12:35:09;;;;;;;0.47;0.47;;;;;;;;;;5014386;28;20188;-85
2023/10/15 12:37:34;;;;;;;0.37;0.37;;;;;;;;;;5013751;28;20176;-91
2023/10/15 12:40:00;;;;;;;0.50;0.50;;;;;;;;;;5014876;28;20250;-90
2023/10/15 12:42:26;;;;;;;0.43;0.43;;;;;;;;;;5014151;28;20204;-90
2023/10/15 12:44:53;;;;;;;0.33;0.33;;;;;;;;;;5014465;28;20319;-89
2023/10/15 12:47:19;;;;;;;0.37;0.37;;;;;;;;;;5016631;28;20344;-90
2023/10/15 12:49:46;;;;;;;0.30;0.30;;;;;;;;;;5037268;28;20196;-92
2023/10/15 12:52:12;;;;;;;0.40;0.40;;;;;;;;;;5039002;28;20207;-90
2023/10/15 12:54:40;;;;;;;0.30;0.30;;;;;;;;;;5039617;28;20177;-90
2023/10/15 12:57:06;;;;;;;0.30;0.30;;;;;;;;;;5039145;28;20176;-90
2023/10/15 12:59:32;;;;;;;0.30;0.30;;;;;;;;;;5043623;28;20184;-88
2023/10/15 13:01:58;;;;;;;0.30;0.30;;;;;;;;;;5041977;28;20204;-91
2023/10/15 13:04:25;;;;;;;0.40;0.40;;;;;;;;;;5022129;28;20187;-92
2023/10/15 13:06:51;;;;;;;0.40;0.40;;;;;;;;;;5023654;28;20180;-89
2023/10/15 13:09:25;;;;;;;0.40;0.40;;;;;;;;;;5025351;28;20279;-92
2023/10/15 13:11:53;;;;;;;0.40;0.40;;;;;;;;;;5021204;28;20342;-91
2023/10/15 13:14:19;;;;;;;0.40;0.40;;;;;;;;;;5024799;28;20176;-91
2023/10/15 13:16:46;;;;;;;0.43;0.43;;;;;;;;;;5022878;28;20172;-91
2023/10/15 13:19:13;;;;;;;0.50;0.50;;;;;;;;;;5023092;28;20164;-90
2023/10/15 13:21:40;;;;;;;0.40;0.40;;;;;;;;;;5020095;28;20187;-91
2023/10/15 13:24:06;;;;;;;0.50;0.50;;;;;;;;;;5025905;28;20172;-91
2023/10/15 13:26:33;;;;;;;0.40;0.40;;;;;;;;;;5022111;28;20175;-92
2023/10/15 13:28:59;;;;;;;0.50;0.50;;;;;;;;;;5023826;28;20653;-91
2023/10/15 13:31:25;;;;;;;0.30;0.30;;;;;;;;;;5022306;28;20203;-89
2023/10/15 13:33:51;;;;;;;0.40;0.40;;;;;;;;;;5023796;28;20172;-88
2023/10/15 13:36:17;;;;;;;0.40;0.40;;;;;;;;;;5021797;28;20200;-89
2023/10/15 13:38:42;;;;;;;0.30;0.30;;;;;;;;;;5021812;28;20180;-87
2023/10/15 13:41:09;;;;;;;0.30;0.30;;;;;;;;;;5021116;28;20228;-88
2023/10/15 13:43:37;;;;;;;0.30;0.30;;;;;;;;;;5020543;28;20187;-88
2023/10/15 13:46:06;;;;;;;0.30;0.30;;;;;;;;;;5024411;28;20178;-88
2023/10/15 13:48:32;;;;;;;0.37;0.37;;;;;;;;;;5020670;28;20176;-88
2023/10/15 13:50:58;;;;;;;0.30;0.30;;;;;;;;;;5026242;28;20203;-89
2023/10/15 13:53:24;;;;;;;0.40;0.40;;;;;;;;;;5043572;28;20155;-89
2023/10/15 13:55:50;;;;;;;0.40;0.40;;;;;;;;;;5042983;28;20160;-90
2023/10/15 13:58:17;;;;;;;0.40;0.40;;;;;;;;;;5046742;28;20222;-89
2023/10/15 14:00:45;;;;;;;0.50;0.50;;;;;;;;;;5030127;28;20599;-90
2023/10/15 14:03:11;;;;;;;0.40;0.40;;;;;;;;;;5021609;28;20319;-87
2023/10/15 14:05:38;;;;;;;0.43;0.43;;;;;;;;;;5023300;28;20199;-87
2023/10/15 14:08:04;;;;;;;0.37;0.37;;;;;;;;;;5022015;28;20177;-90
2023/10/15 14:10:30;;;;;;;0.57;0.57;;;;;;;;;;5027530;28;20199;-89
2023/10/15 14:12:56;;;;;;;0.40;0.40;;;;;;;;;;5040518;28;20208;-92
2023/10/15 14:15:23;;;;;;;0.40;0.40;;;;;;;;;;5032445;28;20680;-90
2023/10/15 14:17:50;;;;;;;0.40;0.40;;;;;;;;;;5024802;28;20255;-91
2023/10/15 14:20:16;;;;;;;0.47;0.47;;;;;;;;;;5023604;28;20668;-92
2023/10/15 14:22:42;;;;;;;0.40;0.40;;;;;;;;;;5022450;28;20193;-90
2023/10/15 14:25:09;;;;;;;0.40;0.40;;;;;;;;;;5022436;28;20172;-90
2023/10/15 14:27:35;;;;;;;0.40;0.40;;;;;;;;;;5023553;28;20169;-90
2023/10/15 14:30:01;;;;;;;0.60;0.60;;;;;;;;;;5022973;28;20258;-90
2023/10/15 14:32:27;;;;;;;0.50;0.50;;;;;;;;;;5029134;28;20183;-89
2023/10/15 14:34:53;;;;;;;0.47;0.47;;;;;;;;;;5033895;28;20192;-89
2023/10/15 14:37:19;;;;;;;0.50;0.50;;;;;;;;;;5036204;28;20202;-88
2023/10/15 14:39:45;;;;;;;0.50;0.50;;;;;;;;;;5030395;28;20173;-89
2023/10/15 14:42:11;;;;;;;0.60;0.60;;;;;;;;;;5021169;28;20227;-89
2023/10/15 14:44:37;;;;;;;0.50;0.50;;;;;;;;;;5021348;28;20557;-89
2023/10/15 14:47:03;;;;;;;0.60;0.60;;;;;;;;;;5021965;28;20176;-89
2023/10/15 14:49:29;;;;;;;0.60;0.60;;;;;;;;;;5019800;28;20227;-89
2023/10/15 14:51:55;;;;;;;0.57;0.57;;;;;;;;;;5019490;28;20204;-88
2023/10/15 14:54:21;;;;;;;0.50;0.50;;;;;;;;;;5021939;28;20576;-87
2023/10/15 14:56:51;;;;;;;0.40;0.40;;;;;;;;;;5022696;28;20167;-90
2023/10/15 14:59:17;;;;;;;0.60;0.60;;;;;;;;;;5021801;28;20175;-88
2023/10/15 15:01:44;;;;;;;0.60;0.60;;;;;;;;;;5022319;28;20199;-88
2023/10/15 15:04:11;;;;;;;0.50;0.50;;;;;;;;;;5020682;28;20207;-90
2023/10/15 15:06:37;;;;;;;0.50;0.50;;;;;;;;;;5015473;28;20176;-88
2023/10/15 15:09:03;;;;;;;0.40;0.40;;;;;;;;;;5024596;28;20181;-89
2023/10/15 15:11:32;;;;;;;0.50;0.50;;;;;;;;;;5026390;28;20607;-90
2023/10/15 15:13:59;;;;;;;0.50;0.50;;;;;;;;;;5026592;28;20231;-90
2023/10/15 15:16:25;;;;;;;0.60;0.60;;;;;;;;;;5021718;28;20510;-89
2023/10/15 15:18:51;;;;;;;0.50;0.50;;;;;;;;;;5022175;28;20182;-90
2023/10/15 15:21:17;;;;;;;0.40;0.40;;;;;;;;;;5021252;28;20188;-90
2023/10/15 15:23:43;;;;;;;0.50;0.50;;;;;;;;;;5021523;28;20676;-90
2023/10/15 15:26:09;;;;;;;0.67;0.67;;;;;;;;;;5020668;28;20204;-90
2023/10/15 15:28:37;;;;;;;0.50;0.50;;;;;;;;;;5023125;28;20202;-92
2023/10/15 15:31:03;;;;;;;0.40;0.40;;;;;;;;;;5021770;28;20618;-89
2023/10/15 15:33:29;;;;;;;0.50;0.50;;;;;;;;;;5020388;28;20173;-90
2023/10/15 15:35:56;;;;;;;0.53;0.53;;;;;;;;;;5024612;28;20230;-91
2023/10/15 15:38:22;;;;;;;0.50;0.50;;;;;;;;;;5024262;28;20187;-90
2023/10/15 15:40:52;;;;;;;0.60;0.60;;;;;;;;;;5021468;28;20173;-89
2023/10/15 15:43:18;;;;;;;0.50;0.50;;;;;;;;;;5024327;28;20200;-90
2023/10/15 15:45:45;;;;;;;0.50;0.50;;;;;;;;;;5045980;28;20227;-90
2023/10/15 15:48:11;;;;;;;0.50;0.50;;;;;;;;;;5042542;28;20180;-90
2023/10/15 15:50:37;;;;;;;0.63;0.63;;;;;;;;;;5034033;28;20196;-90
2023/10/15 15:53:04;;;;;;;0.60;0.60;;;;;;;;;;5030720;28;20199;-89
2023/10/15 15:55:31;;;;;;;0.57;0.57;;;;;;;;;;5025964;28;20271;-90
2023/10/15 15:57:57;;;;;;;0.50;0.50;;;;;;;;;;5023551;28;20195;-90
2023/10/15 16:00:23;;;;;;;0.60;0.60;;;;;;;;;;5031862;28;20211;-90
2023/10/15 16:02:49;;;;;;;0.50;0.50;;;;;;;;;;5034586;28;20200;-91
2023/10/15 16:05:17;;;;;;;0.40;0.40;;;;;;;;;;5034567;28;20210;-91
2023/10/15 16:07:43;;;;;;;0.43;0.43;;;;;;;;;;5034805;28;20179;-91
2023/10/15 16:10:10;;;;;;;0.60;0.60;;;;;;;;;;5033420;28;20212;-92
2023/10/15 16:12:36;;;;;;;0.70;0.70;;;;;;;;;;5034972;28;20200;-92
2023/10/15 16:15:02;;;;;;;0.60;0.60;;;;;;;;;;5035176;28;20172;-91
2023/10/15 16:17:28;;;;;;;0.60;0.60;;;;;;;;;;5035024;28;20172;-89